Date,TemperatureHighF,TemperatureAvgF,TemperatureLowF,DewpointHighF,DewpointAvgF,DewpointLowF,HumidityHigh,HumidityAvg,HumidityLow,PressureMaxIn,PressureMinIn,WindSpeedMaxMPH,WindSpeedAvgMPH,GustSpeedMaxMPH,PrecipitationSumIn
2013-1-1,75,68,62,68,64,58,95,88,79,30.14,30.00,4,1,0,0.00
2013-1-2,74,68,62,67,63,58,90,83,74,30.08,29.98,4,1,0,0.00
2013-1-3,74,68,62,67,63,57,93,84,75,30.07,29.98,3,1,0,0.00
2013-1-4,73,67,61,67,63,57,94,87,76,30.11,30.02,3,1,0,0.00
2013-1-5,75,69,63,68,64,58,93,84,77,30.13,30.03,4,1,0,0.00
2013-1-6,74,68,62,65,61,57,91,80,73,30.15,30.03,4,1,0,0.00
2013-1-7,74,68,62,66,62,57,94,84,69,30.09,29.97,3,0,0,0.00
2013-1-8,76,68,62,65,61,57,86,78,65,30.01,29.91,5,1,0,0.00
2013-1-9,76,68,62,66,60,55,87,77,67,30.02,29.91,4,1,0,0.00
2013-1-10,76,68,62,67,62,57,91,80,68,30.01,29.92,4,1,0,0.00
2013-1-11,78,69,60,67,60,55,87,72,54,29.98,29.89,4,1,0,0.00
2013-1-12,75,68,60,68,62,54,95,81,66,30.01,29.92,4,1,0,0.00
2013-1-13,76,69,61,69,63,57,89,83,68,30.03,29.94,6,1,0,0.00
2013-1-14,78,70,62,70,64,58,96,84,70,30.03,29.91,6,1,0,0.00
2013-1-15,76,69,66,69,67,65,97,92,78,29.98,29.90,4,1,0,0.00
2013-1-16,76,69,61,68,63,57,97,84,61,29.99,29.87,6,2,0,0.00
2013-1-17,74,67,60,65,61,56,91,83,71,29.97,29.86,4,1,0,0.00
2013-1-18,73,67,62,63,60,56,91,79,65,29.98,29.86,5,3,0,0.00
2013-1-19,75,67,58,58,52,40,81,59,44,30.01,29.89,13,3,0,0.00
2013-1-20,73,64,56,63,56,40,89,74,49,30.08,29.99,4,1,0,0.00
2013-1-21,74,66,60,64,60,53,91,82,71,30.14,30.03,4,1,0,0.00
2013-1-22,74,67,61,64,60,55,87,79,66,30.15,30.04,4,1,0,0.00
2013-1-23,72,67,62,65,61,57,89,82,75,30.09,30.02,4,1,0,0.00
2013-1-24,72,68,62,66,62,57,92,83,77,30.11,30.03,4,1,0,0.00
2013-1-25,75,68,60,66,62,56,92,84,72,30.11,30.01,7,2,0,0.00
2013-1-26,75,68,61,65,61,56,89,78,61,30.09,29.96,8,2,0,0.00
2013-1-27,75,67,61,65,61,55,89,80,66,30.05,29.93,6,2,0,0.00
2013-1-28,76,68,61,65,61,57,88,77,66,30.03,29.93,5,1,0,0.00
2013-1-29,73,68,65,67,64,61,97,87,77,30.06,29.95,5,1,0,0.00
2013-1-30,77,69,64,68,65,63,99,88,71,30.11,30.03,7,2,0,0.00
2013-1-31,74,68,62,69,65,59,95,89,78,30.11,30.03,4,1,0,0.00
2013-2-1,76,69,62,69,64,59,94,86,75,30.12,30.04,5,1,0,0.00
2013-2-2,77,69,64,65,62,59,87,78,64,30.16,30.06,3,1,0,0.00
2013-2-3,73,67,60,65,62,57,93,85,73,30.18,30.08,3,1,0,0.00
2013-2-4,71,66,62,64,61,57,92,82,76,30.11,30.05,5,1,0,0.00
2013-2-5,72,67,61,65,61,55,89,81,72,30.09,30.02,3,1,0,0.00
2013-2-6,76,68,60,66,60,55,89,78,65,30.10,30.01,4,1,0,0.00
2013-2-7,77,69,61,67,62,57,90,80,68,30.14,30.03,5,1,0,0.00
2013-2-8,75,68,60,68,62,55,90,82,71,30.16,30.05,5,1,0,0.00
2013-2-9,75,68,60,65,62,56,92,81,68,30.14,30.05,4,2,0,0.00
2013-2-10,75,68,62,68,63,57,92,84,75,30.19,30.09,4,1,0,0.00
2013-2-11,74,68,61,67,62,56,91,82,75,30.22,30.11,5,2,0,0.00
2013-2-12,73,66,60,66,61,54,89,83,75,30.19,30.09,3,1,0,0.00
2013-2-13,72,66,60,61,58,54,84,77,66,30.14,30.03,4,1,0,0.00
2013-2-14,71,65,58,63,59,53,88,80,71,30.11,30.01,3,1,0,0.00
2013-2-15,75,67,59,64,59,52,90,75,46,30.11,30.01,7,2,0,0.00
2013-2-16,77,68,62,68,61,56,89,79,70,30.11,30.02,3,1,0,0.00
2013-2-17,78,68,60,66,61,56,92,80,63,30.12,30.03,1,0,0,0.00
2013-2-18,76,68,63,67,62,57,89,81,64,30.11,30.01,2,0,0,0.00
2013-2-19,64,62,60,60,58,56,90,87,85,30.12,30.06,0,0,0,0.00
2013-2-20,80,72,63,68,65,59,91,79,65,30.13,30.03,2,0,0,0.00
2013-2-21,77,68,60,68,62,56,90,83,72,30.14,30.05,1,0,0,0.00
2013-2-22,74,68,63,69,63,57,94,86,74,30.13,30.02,0,0,0,0.00
2013-2-23,75,67,62,67,62,59,95,87,70,30.13,30.03,5,1,0,0.00
2013-2-24,73,67,60,67,62,56,92,85,73,30.11,30.01,3,1,0,0.00
2013-2-25,75,67,60,66,62,58,93,85,72,30.15,30.04,5,2,0,0.00
2013-2-26,73,67,59,65,61,55,89,82,74,30.15,30.07,3,1,0,0.00
2013-2-27,74,67,62,66,62,57,90,81,72,30.18,30.09,4,1,0,0.00
2013-2-28,72,66,58,64,60,54,90,81,71,30.19,30.10,3,1,0,0.00
2013-3-1,72,66,60,63,59,53,86,80,70,30.17,30.06,4,1,0,0.00
2013-3-2,75,67,62,62,60,56,87,78,61,30.17,30.06,4,1,0,0.00
2013-3-3,73,66,58,63,59,53,87,79,67,30.17,30.08,5,1,0,0.00
2013-3-4,74,66,59,65,60,55,89,80,68,30.19,30.09,4,2,0,0.00
2013-3-5,74,66,60,62,58,55,89,76,60,30.17,30.07,5,2,0,0.00
2013-3-6,75,67,60,65,58,53,86,74,64,30.17,30.08,6,2,0,0.00
2013-3-7,74,66,59,65,60,52,94,81,68,30.12,30.02,4,2,0,0.00
2013-3-8,73,66,58,65,61,54,93,82,68,30.09,29.95,4,2,0,0.00
2013-3-9,78,69,61,67,60,53,90,74,59,30.03,29.93,10,4,0,0.00
2013-3-10,76,70,66,68,63,55,95,77,65,30.06,29.93,9,4,0,0.00
2013-3-11,76,69,62,68,64,57,94,83,71,30.10,29.99,5,2,0,0.00
2013-3-12,74,69,64,67,64,58,93,84,76,30.10,30.01,4,1,0,0.00
2013-3-13,76,68,61,67,61,57,90,80,67,30.11,30.02,5,2,0,0.00
2013-3-14,75,69,62,67,63,58,92,82,70,30.11,30.02,4,2,0,0.00
2013-3-15,72,68,65,67,64,61,96,89,81,30.06,29.96,4,1,0,0.00
2013-3-16,69,66,63,65,61,55,94,85,73,30.06,29.96,6,1,0,0.00
2013-3-17,71,66,62,62,59,56,87,78,69,30.07,29.97,6,2,0,0.00
2013-3-18,77,68,60,63,59,55,90,74,52,30.07,29.96,6,2,0,0.00
2013-3-19,77,68,60,65,59,54,86,74,55,30.07,29.98,5,2,0,0.00
2013-3-20,74,68,63,67,62,55,97,81,59,30.11,30.00,5,1,0,0.00
2013-3-21,77,70,62,69,64,59,94,82,64,30.11,30.00,6,2,0,0.00
2013-3-22,76,70,64,68,64,60,91,82,67,30.10,29.96,7,2,0,0.00
2013-3-23,75,69,64,68,65,60,96,86,70,30.05,29.93,9,2,0,0.00
2013-3-24,75,68,65,68,65,61,97,88,74,30.08,29.95,8,2,0,0.00
2013-3-25,76,69,63,69,64,58,93,84,74,30.06,29.96,7,2,0,0.00
2013-3-26,74,69,64,68,64,60,90,85,76,30.08,29.98,4,1,0,0.00
2013-3-27,73,68,63,67,64,59,97,87,75,30.06,29.96,6,2,0,0.00
2013-3-28,76,69,64,68,64,59,96,85,72,30.06,29.96,7,2,0,0.00
2013-3-29,75,68,64,68,63,58,95,83,69,30.08,29.99,5,2,0,0.00
2013-3-30,74,68,63,68,63,-100,94,87,77,30.10,29.98,5,2,0,0.00
2013-3-31,75,68,61,66,61,55,95,81,67,30.06,29.98,8,3,0,0.00
2013-4-1,72,66,60,58,55,52,85,71,52,30.06,29.97,6,3,0,0.00
2013-4-2,73,66,59,60,56,52,84,72,59,30.10,30.00,7,4,0,0.00
2013-4-3,75,67,58,63,58,53,84,73,62,30.13,30.01,5,2,0,0.00
2013-4-4,78,68,60,66,60,53,83,74,59,30.12,30.02,4,2,0,0.00
2013-4-5,77,69,60,66,61,54,86,75,61,30.16,30.04,5,1,0,0.00
2013-4-6,79,70,63,68,64,59,92,80,66,30.18,30.07,5,2,0,0.00
2013-4-7,75,70,64,69,65,62,92,85,73,30.20,30.09,4,2,0,0.00
2013-4-8,74,69,64,67,64,60,94,85,74,30.13,30.02,5,1,0,0.00
2013-4-9,78,70,63,67,65,60,94,84,68,30.11,30.00,4,1,0,0.00
2013-4-10,76,70,64,68,65,58,96,83,68,30.10,29.99,4,2,0,0.00
2013-4-11,75,70,66,68,65,61,96,83,70,30.09,29.97,5,1,0,0.00
2013-4-12,75,70,65,68,65,60,93,84,73,30.03,29.95,5,2,0,0.00
2013-4-13,78,70,65,70,66,63,97,87,71,30.02,29.90,9,3,0,0.00
2013-4-14,76,70,64,69,65,60,93,86,75,30.03,29.92,4,1,0,0.00
2013-4-15,79,71,63,69,65,60,94,82,64,30.09,29.97,6,2,0,0.00
2013-4-16,73,70,65,69,66,62,94,90,83,30.14,30.03,4,2,0,0.00
2013-4-17,75,69,64,69,65,60,93,86,71,30.16,30.06,6,1,0,0.00
2013-4-18,76,70,64,68,64,59,90,81,73,30.16,30.08,5,1,0,0.00
2013-4-19,78,70,64,69,65,60,93,83,72,30.13,30.05,6,2,0,0.00
2013-4-20,74,70,63,68,65,60,93,84,78,30.12,30.06,3,1,0,0.00
2013-4-21,75,69,63,69,65,58,95,85,73,30.10,30.01,5,2,0,0.00
2013-4-22,76,70,64,69,65,61,93,84,74,30.10,30.01,5,2,0,0.00
2013-4-23,79,71,63,70,65,59,92,82,64,30.12,30.03,5,2,0,0.00
2013-4-24,77,70,63,70,66,59,93,86,75,30.12,30.03,6,2,0,0.00
2013-4-25,77,70,64,69,65,58,93,84,69,30.11,30.01,5,2,0,0.00
2013-4-26,74,69,65,68,65,61,92,86,76,30.07,30.01,4,1,0,0.00
2013-4-27,78,70,62,68,64,59,92,82,70,30.10,29.99,5,2,0,0.00
2013-4-28,80,72,64,68,64,58,85,76,59,30.09,29.96,9,3,0,0.00
2013-4-29,76,71,65,69,66,60,97,83,71,30.05,29.95,7,2,0,0.00
2013-4-30,76,70,64,69,66,62,95,89,74,30.07,29.98,3,1,0,0.00
2013-5-1,77,70,62,68,64,58,93,81,65,30.11,30.02,5,1,0,0.00
2013-5-2,74,70,65,69,66,62,97,88,80,30.12,30.04,5,1,0,0.00
2013-5-3,72,69,66,69,67,64,98,93,84,30.11,30.03,3,1,0,0.00
2013-5-4,73,68,65,68,67,64,98,94,81,30.06,29.97,3,1,0,0.00
2013-5-5,76,70,63,69,66,62,96,88,74,30.02,29.92,6,2,0,0.00
2013-5-6,77,70,66,69,66,63,96,88,74,30.03,29.92,5,2,0,0.00
2013-5-7,80,71,63,69,66,61,96,83,64,30.04,29.95,5,2,0,0.00
2013-5-8,79,72,64,71,66,61,90,82,69,30.08,29.98,4,1,0,0.00
2013-5-9,78,72,66,71,68,63,96,85,71,30.12,30.00,5,1,0,0.00
2013-5-10,75,70,67,72,66,-100,98,94,84,30.14,30.05,3,1,0,0.00
2013-5-11,76,71,68,72,68,-100,98,94,84,30.13,30.03,3,1,0,0.00
2013-5-12,77,72,68,73,70,67,98,94,81,30.10,30.02,5,1,0,0.00
2013-5-13,75,71,67,72,69,65,98,94,85,30.09,30.02,3,1,0,0.00
2013-5-14,75,70,66,71,68,64,96,93,85,30.13,30.05,3,1,0,0.00
2013-5-15,76,71,66,70,68,64,94,89,80,30.16,30.06,3,1,0,0.00
2013-5-16,77,68,66,69,49,-100,94,82,70,30.15,30.05,4,1,0,0.00
2013-5-17,79,71,64,68,60,-100,91,80,68,30.11,30.01,5,2,0,0.00
2013-5-18,76,71,67,69,66,63,95,85,73,30.07,30.00,5,2,0,0.00
2013-5-19,77,71,65,69,67,63,96,87,73,30.05,29.95,5,2,0,0.00
2013-5-20,76,71,64,70,66,62,97,87,77,30.04,29.95,4,2,0,0.00
2013-5-21,79,74,67,70,66,59,91,77,64,30.06,29.97,5,2,0,0.00
2013-5-22,79,73,67,70,67,64,91,82,71,30.09,29.99,7,2,0,0.00
2013-5-23,77,72,65,72,68,63,94,89,73,30.08,30.00,3,1,0,0.00
2013-5-24,77,72,66,71,67,62,95,86,73,30.08,30.02,5,1,0,0.00
2013-5-25,75,70,68,70,67,65,97,91,82,30.09,30.00,3,1,0,0.00
2013-5-26,76,71,67,72,68,64,96,90,82,30.11,30.03,4,1,0,0.00
2013-5-27,79,72,64,70,67,62,95,85,68,30.13,30.04,5,2,0,0.00
2013-5-28,80,72,65,71,68,63,95,87,72,30.14,30.06,5,2,0,0.00
2013-5-29,77,72,68,71,69,65,94,88,81,30.13,30.03,4,2,0,0.00
2013-5-30,78,72,67,71,68,64,97,89,71,30.08,29.97,3,1,0,0.00
2013-5-31,76,72,68,71,69,66,97,92,84,30.08,29.98,3,1,0,0.00
2013-6-1,78,73,67,72,69,65,97,89,79,30.11,30.01,3,1,0,0.00
2013-6-2,76,72,68,73,70,65,98,93,81,30.11,30.02,3,1,0,0.00
2013-6-3,77,73,69,70,68,66,96,85,75,30.11,30.02,2,1,0,0.00
2013-6-4,76,71,67,70,67,62,93,86,77,30.06,29.99,4,1,0,0.00
2013-6-5,78,72,65,68,66,61,91,80,69,30.07,29.98,5,1,0,0.00
2013-6-6,75,70,65,68,66,61,92,85,79,30.06,29.97,3,1,0,0.00
2013-6-7,75,70,67,69,66,62,96,85,79,30.07,29.98,4,1,0,0.00
2013-6-8,77,70,64,69,66,61,94,86,75,30.09,29.99,3,1,0,0.00
2013-6-9,76,72,67,71,68,64,92,87,79,30.10,30.03,5,1,0,0.00
2013-6-10,76,71,66,70,67,63,94,87,78,30.07,30.02,5,1,0,0.00
2013-6-11,76,71,66,70,67,63,92,87,75,30.06,29.99,3,1,0,0.00
2013-6-12,78,72,67,70,66,63,92,84,72,30.10,30.02,4,1,0,0.00
2013-6-13,78,72,66,71,67,62,94,85,73,30.11,30.03,5,1,0,0.00
2013-6-14,76,72,65,70,67,62,92,86,77,30.10,30.00,5,1,0,0.00
2013-6-15,78,72,67,70,66,62,90,81,67,30.03,29.95,4,1,0,0.00
2013-6-16,78,72,66,69,66,62,89,81,67,30.04,29.95,4,1,0,0.00
2013-6-17,77,72,67,70,66,62,90,82,71,30.10,29.99,3,1,0,0.00
2013-6-18,77,72,67,70,67,63,92,83,72,30.09,30.02,3,1,0,0.00
2013-6-19,79,72,66,70,67,62,98,84,63,30.09,30.02,3,1,0,0.00